Latest Weather Observations for Mount Buller

IDV60801

Issued at 10:32 pm EST Sunday 30 April 2017 (issued every 30 minutes, with the page automatically refreshed every 10 minutes)

About weather observations | Map of weather stations | Latest weather observations for VIC | Other Formats
Station Details ID: 083024 Name: MOUNT BULLER Lat: -37.15 Lon: 146.44 Height: 1707.0 m
Data from the previous 72 hours. | See also: Recent months at Mount Buller
Date/Time
EST
Temp
°C
App
Temp
°C
Dew
Point
°C
Rel
Hum
%
Delta-T
°C
Wind Press
QNH
hPa
Press
MSL
hPa
Rain since
9am
mm
Dir  Spd
km/h
Gust
km/h
Spd
kts
Gust
kts
30/10:30pm 3.6 -4.5 3.5 99 0.0 NNE 35 46 19 25 - - 0.0
30/10:00pm 3.5 -4.2 3.4 99 0.0 NNE 33 43 18 23 - - 0.0
30/09:30pm 3.8 -4.2 3.7 99 0.0 NNE 35 44 19 24 - - 0.0
30/09:00pm 3.6 -1.6 3.5 99 0.0 NNE 20 32 11 17 - - 0.0
30/08:30pm 3.8 -1.8 3.7 99 0.0 NNE 22 30 12 16 - - 0.0
30/08:00pm 3.9 -2.4 3.8 99 0.0 NNE 26 33 14 18 - - 0.0
30/07:30pm 3.9 -2.0 3.8 99 0.0 NNE 24 32 13 17 - - 0.0
30/07:00pm 4.2 -0.7 4.1 99 0.0 NNE 19 24 10 13 - - 0.0
30/06:30pm 4.2 -0.3 4.1 99 0.0 NNE 17 24 9 13 - - 0.0
30/06:00pm 4.4 1.1 4.3 99 0.0 NNE 11 17 6 9 - - 0.0
30/05:30pm 4.4 -0.1 4.3 99 0.0 NNE 17 22 9 12 - - 0.0
30/05:00pm 4.5 0.0 4.4 99 0.0 NNE 17 24 9 13 - - 0.0
30/04:30pm 4.8 0.4 4.7 99 0.0 NNE 17 22 9 12 - - 0.0
30/04:00pm 5.4 1.1 5.1 98 0.1 NNE 17 22 9 12 - - 0.0
30/03:30pm 5.7 1.3 5.0 95 0.3 NNE 17 20 9 11 - - 0.0
30/03:00pm 6.3 2.1 5.6 95 0.3 NNE 17 20 9 11 - - 0.0
30/02:30pm 6.3 2.4 5.4 94 0.4 NNE 15 20 8 11 - - 0.0
30/02:00pm 7.1 2.9 5.7 91 0.7 N 17 20 9 11 - - 0.0
30/01:30pm 7.9 4.0 5.5 85 1.2 NNE 15 20 8 11 - - 0.0
30/01:00pm 7.2 2.9 5.2 87 1.0 NNE 17 20 9 11 - - 0.0
30/12:30pm 6.8 2.7 4.5 85 1.1 NNE 15 22 8 12 - - 0.0
30/12:00pm 6.4 3.6 5.0 91 0.7 NNE 9 20 5 11 - - 0.0
30/11:30am 7.8 6.9 5.9 88 1.0 CALM 0 0 0 0 - - 0.0
30/11:00am 7.5 6.3 4.8 83 1.3 CALM 0 0 0 0 - - 0.0
30/10:30am 7.4 6.3 5.2 86 1.1 CALM 0 0 0 0 - - 0.0
30/10:00am 8.9 7.5 3.3 68 2.7 CALM 0 0 0 0 - - 0.0
30/09:30am 9.0 7.2 1.4 59 3.5 CALM 0 0 0 0 - - 0.0
30/09:00am 11.8 8.5 -14.0 15 8.6 CALM 0 0 0 0 - - 0.0
30/08:30am 12.7 9.1 -20.7 8 9.7 CALM 0 0 0 0 - - 0.0
30/08:00am 11.6 7.9 -23.0 7 9.4 CALM 0 0 0 0 - - 0.0
30/07:30am 10.6 6.9 -25.5 6 9.2 CALM 0 0 0 0 - - 0.0
30/07:00am 10.9 7.0 -32.6 3 9.6 CALM 0 0 0 0 - - 0.0
30/06:30am 10.9 7.0 -32.6 3 9.6 CALM 0 0 0 0 - - 0.0
30/06:00am 10.4 6.6 -29.9 4 9.3 CALM 0 0 0 0 - - 0.0
30/05:30am 10.5 6.7 -29.9 4 9.4 CALM 0 0 0 0 - - 0.0
30/05:00am 10.0 6.2 -27.9 5 9.1 CALM 0 0 0 0 - - 0.0
30/04:30am 9.7 5.9 -26.1 6 8.8 CALM 0 0 0 0 - - 0.0
30/04:00am 9.3 5.6 -23.2 8 8.5 CALM 0 0 0 0 - - 0.0
30/03:30am 9.6 5.9 -24.5 7 8.7 CALM 0 0 0 0 - - 0.0
30/03:00am 9.9 6.1 -26.0 6 8.9 CALM 0 0 0 0 - - 0.0
30/02:30am 9.5 5.8 -24.6 7 8.7 CALM 0 0 0 0 - - 0.0
30/02:00am 9.1 5.4 -23.4 8 8.4 CALM 0 0 0 0 - - 0.0
30/01:30am 8.2 4.7 -16.9 15 7.4 CALM 0 0 0 0 - - 0.0
30/01:00am 8.4 5.0 -15.9 16 7.4 CALM 0 0 0 0 - - 0.0
30/12:30am 6.4 2.8 -13.2 23 6.2 SSW 2 19 1 10 - - 0.0
30/12:00am 6.2 0.1 -12.3 25 5.9 SSW 15 17 8 9 - - 0.0
 
Date/Time
EST
Temp
°C
App
Temp
°C
Dew
Point
°C
Rel
Hum
%
Delta-T
°C
Wind Press
QNH
hPa
Press
MSL
hPa
Rain since
9am
mm
Dir  Spd
km/h
Gust
km/h
Spd
kts
Gust
kts
29/11:30pm 6.6 0.6 -11.5 26 5.9 S 15 17 8 9 - - 0.0
29/11:00pm 5.3 0.2 -8.9 35 4.9 S 11 15 6 8 - - 0.0
29/10:30pm 5.5 0.2 -7.3 39 4.6 S 13 17 7 9 - - 0.0
29/10:00pm 4.9 0.0 -3.6 54 3.3 S 13 17 7 9 - - 0.0
29/09:30pm 5.3 2.7 1.2 75 1.8 SE 4 7 2 4 - - 0.0
29/09:00pm 4.7 2.2 3.5 92 0.6 ESE 6 6 3 3 - - 0.0
29/08:30pm 5.1 2.7 4.1 93 0.5 ESE 6 7 3 4 - - 0.0
29/08:00pm 4.9 1.2 2.6 85 1.0 SSE 11 13 6 7 - - 0.0
29/07:30pm 3.0 -0.6 2.9 99 0.0 SSE 11 13 6 7 - - 0.0
29/07:00pm 2.8 -1.2 2.7 99 0.0 SSW 13 17 7 9 - - 0.0
29/06:30pm 3.1 -2.0 3.0 99 0.0 SW 19 22 10 12 - - 0.0
29/06:00pm 3.1 -1.2 3.0 99 0.0 SW 15 20 8 11 - - 0.0
29/05:30pm 3.6 -0.7 3.5 99 0.0 SW 15 19 8 10 - - 0.0
29/05:00pm 4.1 -0.8 4.0 99 0.0 SW 19 24 10 13 - - 0.0
29/04:30pm 4.9 -0.1 4.8 99 0.0 SSW 20 24 11 13 - - 0.0
29/04:00pm 5.6 1.4 5.5 99 0.0 SW 17 28 9 15 - - 0.0
29/03:30pm 5.6 1.4 5.5 99 0.0 SW 17 26 9 14 - - 0.0
29/03:00pm 5.9 1.1 5.8 99 0.0 SW 20 28 11 15 - - 0.0
29/02:30pm 5.8 2.0 5.7 99 0.0 SW 15 22 8 12 - - 0.0
29/02:00pm 6.1 2.0 6.0 99 0.0 SW 17 26 9 14 - - 0.0
29/01:30pm 5.7 1.9 5.6 99 0.0 SW 15 26 8 14 - - 0.0
29/01:00pm 5.3 1.4 5.2 99 0.0 SSW 15 22 8 12 - - 0.0
29/12:30pm 5.5 0.7 5.4 99 0.0 SSW 20 30 11 16 - - 0.0
29/12:00pm 5.0 -0.3 4.9 99 0.0 SSW 22 32 12 17 - - 0.0
29/11:30am 5.0 0.1 4.9 99 0.0 SSW 20 32 11 17 - - 0.0
29/11:00am 5.2 0.5 5.1 99 0.0 SW 19 26 10 14 - - 0.0
29/10:30am 4.7 -0.7 4.6 99 0.0 SW 22 32 12 17 - - 0.0
29/10:00am 4.8 -1.7 4.7 99 0.0 SW 28 35 15 19 - - 0.0
29/09:30am 4.7 -1.4 4.6 99 0.0 SSW 26 37 14 20 - - 0.0
29/09:00am 4.5 -2.1 4.4 99 0.0 SSW 28 39 15 21 - - 0.0
29/08:30am 4.5 -2.1 4.4 99 0.0 SW 28 41 15 22 - - 0.0
29/08:00am 4.3 -2.7 4.2 99 0.0 SW 30 43 16 23 - - 0.0
29/07:30am 4.2 -3.2 4.1 99 0.0 SW 32 41 17 22 - - 0.0
29/07:00am 4.0 -1.9 3.9 99 0.0 SSW 24 33 13 18 - - 0.0
29/06:30am 4.1 -1.8 4.0 99 0.0 SW 24 32 13 17 - - 0.0
29/06:00am 4.0 -1.9 3.9 99 0.0 SW 24 32 13 17 - - 0.0
29/05:30am 4.0 -1.5 3.9 99 0.0 WSW 22 33 12 18 - - 0.0
29/05:00am 4.0 -1.9 3.9 99 0.0 WSW 24 32 13 17 - - 0.0
29/04:30am 3.9 -2.8 3.8 99 0.0 WSW 28 35 15 19 - - 0.0
29/04:00am 4.2 -2.0 4.1 99 0.0 WSW 26 33 14 18 - - 0.0
29/03:30am 4.1 -2.2 4.0 99 0.0 WSW 26 33 14 18 - - 0.0
29/03:00am 4.0 -2.3 3.9 99 0.0 SW 26 35 14 19 - - 0.0
29/02:30am 4.4 -1.0 4.3 99 0.0 WSW 22 32 12 17 - - 0.0
29/02:00am 4.3 -1.2 4.2 99 0.0 WSW 22 32 12 17 - - 0.0
29/01:30am 4.0 -1.9 3.9 99 0.0 WSW 24 33 13 18 - - 0.0
29/01:00am 3.7 -3.0 3.6 99 0.0 WSW 28 37 15 20 - - 0.0
29/12:30am 3.6 -3.5 3.5 99 0.0 WSW 30 37 16 20 - - 0.0
29/12:00am 3.5 -3.6 3.4 99 0.0 WSW 30 39 16 21 - - 0.0
 
Date/Time
EST
Temp
°C
App
Temp
°C
Dew
Point
°C
Rel
Hum
%
Delta-T
°C
Wind Press
QNH
hPa
Press
MSL
hPa
Rain since
9am
mm
Dir  Spd
km/h
Gust
km/h
Spd
kts
Gust
kts
28/11:30pm 3.3 -4.2 3.2 99 0.0 SW 32 37 17 20 - - 0.0
28/11:00pm 3.7 -2.3 3.6 99 0.0 SW 24 32 13 17 - - 0.0
28/10:30pm 3.9 -2.4 3.8 99 0.0 WSW 26 33 14 18 - - 0.0
28/10:00pm 3.4 -4.3 3.3 99 0.0 WSW 33 43 18 23 - - 0.0
28/09:30pm 3.3 -3.1 3.2 99 0.0 WSW 26 33 14 18 - - 0.0
28/09:00pm 3.0 -3.8 2.9 99 0.0 SW 28 33 15 18 - - 0.0
28/08:30pm 2.9 -4.0 2.8 99 0.0 SSW 28 37 15 20 - - 0.0
28/08:00pm 3.2 -2.8 3.1 99 0.0 SW 24 28 13 15 - - 0.0
28/07:30pm 3.2 -2.8 3.1 99 0.0 SW 24 30 13 16 - - 0.0
28/07:00pm 3.5 -2.1 3.4 99 0.0 WSW 22 30 12 16 - - 0.0
28/06:30pm 3.3 -2.0 3.2 99 0.0 WSW 20 26 11 14 - - 0.0
28/06:00pm 3.5 -1.7 3.4 99 0.0 WSW 20 26 11 14 - - 0.0
28/05:30pm 3.5 -1.5 3.4 99 0.0 SW 19 24 10 13 - - 0.0
28/05:00pm 3.7 -0.5 3.6 99 0.0 SW 15 22 8 12 - - 0.0
28/04:30pm 3.7 -1.3 3.6 99 0.0 SW 19 24 10 13 - - 0.0
28/04:00pm 4.0 -0.9 3.9 99 0.0 SW 19 26 10 14 - - 0.0
28/03:30pm 4.0 -1.2 3.7 98 0.1 SW 20 28 11 15 - - 0.0
28/03:00pm 5.6 1.6 2.9 83 1.2 SW 13 19 7 10 - - 0.0
28/02:30pm 6.2 3.0 3.0 80 1.5 SSW 9 15 5 8 - - 0.0
28/02:00pm 6.8 3.1 2.1 72 2.1 SSW 11 20 6 11 - - 0.0
28/01:30pm 6.6 0.8 2.5 75 1.9 SW 22 39 12 21 - - 0.0
28/01:00pm 6.8 1.1 0.7 65 2.7 SW 20 33 11 18 - - 0.0
28/12:30pm 5.9 0.1 -0.2 65 2.6 SW 20 30 11 16 - - 0.0
28/12:00pm 5.9 0.4 0.5 68 2.4 SW 19 26 10 14 - - 0.0
28/11:30am 6.5 2.6 1.4 70 2.3 SSW 11 17 6 9 - - 0.0
28/11:00am 7.0 0.3 -4.4 44 4.5 SSW 22 32 12 17 - - 0.0
28/10:30am 6.1 -0.2 -3.8 49 3.9 SW 20 30 11 16 - - 0.0
28/10:00am 6.0 0.1 -0.9 61 2.9 SSW 20 26 11 14 - - 0.0
28/09:30am 4.9 -1.2 0.5 73 1.9 SSW 22 33 12 18 - - 0.0
28/09:00am 3.7 -1.8 1.7 87 0.9 SSW 20 28 11 15 - - 1.0
28/08:30am 1.6 -3.4 1.2 97 0.2 SSW 17 22 9 12 - - 1.0
28/08:00am 0.3 -6.2 0.2 99 0.0 SW 24 32 13 17 - - 1.0
28/07:30am 0.3 -5.8 0.2 99 0.0 SSW 22 30 12 16 - - 1.0
28/07:00am 0.0 -6.2 -0.1 99 0.0 SSW 22 33 12 18 - - 1.0
28/06:30am -0.4 -6.3 -0.5 99 0.0 SSW 20 30 11 16 - - 1.0
28/06:00am -0.3 -6.9 -0.4 99 0.0 SW 24 30 13 16 - - 1.0
28/05:30am -0.4 -7.0 -0.5 99 0.0 SSW 24 33 13 18 - - 1.0
28/05:00am -0.1 -7.4 -0.2 99 0.0 SSW 28 39 15 21 - - 1.0
28/04:30am -0.1 -7.4 -0.2 99 0.0 SSW 28 33 15 18 - - 1.0
28/04:00am -0.1 -8.2 -0.2 99 0.0 SW 32 39 17 21 - - 1.0
28/03:30am -0.1 -7.1 -0.2 99 0.0 SSW 26 32 14 17 - - 1.0
28/03:00am -0.1 -8.2 -0.2 99 0.0 SSW 32 41 17 22 - - 1.0
28/02:30am -0.2 -8.3 -0.3 99 0.0 SSW 32 37 17 20 - - 1.0
28/02:00am -0.2 -7.9 -0.3 99 0.0 SSW 30 39 16 21 - - 1.0
28/01:30am -0.2 -7.9 -0.3 99 0.0 SSW 30 37 16 20 - - 1.0
28/01:00am -0.2 -8.3 -0.3 99 0.0 SSW 32 44 17 24 - - 1.0
28/12:30am -0.4 -7.8 -0.5 99 0.0 S 28 35 15 19 - - 1.0
28/12:00am -0.4 -8.5 -0.5 99 0.0 SSW 32 43 17 23 - - 1.0
 
Date/Time
EST
Temp
°C
App
Temp
°C
Dew
Point
°C
Rel
Hum
%
Delta-T
°C
Wind Press
QNH
hPa
Press
MSL
hPa
Rain since
9am
mm
Dir  Spd
km/h
Gust
km/h
Spd
kts
Gust
kts
27/11:30pm -0.6 -8.8 -0.7 99 0.0 S 32 41 17 22 - - 1.0
27/11:00pm -0.7 -9.1 -0.8 99 0.0 S 33 44 18 24 - - 1.0

Other Formats:

Comma delimited format used in spreadsheet applications
http://www.bom.gov.au/fwo/IDV60801/IDV60801.94894.axf

JavaScript Object Notation format (JSON) in row-major order
http://www.bom.gov.au/fwo/IDV60801/IDV60801.94894.json